createdAt,value
2018-02-10T00:01:41.299Z,1.90
2018-02-10T00:04:08.936Z,1.90
2018-02-10T00:06:34.914Z,1.90
2018-02-10T00:09:01.439Z,2.00
2018-02-10T00:11:27.799Z,1.90
2018-02-10T00:13:57.888Z,1.90
2018-02-10T00:16:32.110Z,1.90
2018-02-10T00:18:59.796Z,1.90
2018-02-10T00:21:25.846Z,1.90
2018-02-10T00:23:52.940Z,1.90
2018-02-10T00:26:19.012Z,1.90
2018-02-10T00:28:46.618Z,1.90
2018-02-10T00:31:13.202Z,1.90
2018-02-10T00:33:39.436Z,1.90
2018-02-10T00:36:06.038Z,1.80
2018-02-10T00:38:32.071Z,1.90
2018-02-10T00:40:58.396Z,1.90
2018-02-10T00:43:25.368Z,1.90
2018-02-10T00:45:52.264Z,1.90
2018-02-10T00:48:20.130Z,1.90
2018-02-10T00:50:46.364Z,1.80
2018-02-10T00:53:14.160Z,1.90
2018-02-10T00:55:40.247Z,1.80
2018-02-10T00:58:06.379Z,1.80
2018-02-10T01:00:32.511Z,2.00
2018-02-10T01:03:00.735Z,1.90
2018-02-10T01:05:27.715Z,2.00
2018-02-10T01:07:57.238Z,1.90
2018-02-10T01:10:25.395Z,1.90
2018-02-10T01:15:23.770Z,1.80
2018-02-10T01:17:50.538Z,1.80
2018-02-10T01:20:16.598Z,1.80
2018-02-10T01:22:43.938Z,1.80
2018-02-10T01:25:10.134Z,1.80
2018-02-10T01:27:36.271Z,1.90
2018-02-10T01:30:02.960Z,1.80
2018-02-10T01:32:33.337Z,1.80
2018-02-10T01:35:00.324Z,1.70
2018-02-10T01:37:26.386Z,1.90
2018-02-10T01:39:56.320Z,1.80
2018-02-10T01:42:23.055Z,1.80
2018-02-10T01:44:49.158Z,1.70
2018-02-10T01:47:16.232Z,1.80
2018-02-10T01:49:42.282Z,1.80
2018-02-10T01:52:08.318Z,1.80
2018-02-10T01:54:34.346Z,1.70
2018-02-10T01:57:02.314Z,1.70
2018-02-10T01:59:29.022Z,1.70
2018-02-10T02:01:55.923Z,1.70
2018-02-10T02:06:53.508Z,1.70
2018-02-10T02:09:19.531Z,1.70
2018-02-10T02:11:45.811Z,1.80
2018-02-10T02:14:12.505Z,1.80
2018-02-10T02:16:38.542Z,1.80
2018-02-10T02:19:04.567Z,1.80
2018-02-10T02:21:30.693Z,1.80
2018-02-10T02:23:57.067Z,1.80
2018-02-10T02:26:23.151Z,1.90
2018-02-10T02:28:49.410Z,1.80
2018-02-10T02:31:17.034Z,1.80
2018-02-10T02:33:43.057Z,1.80
2018-02-10T02:36:09.822Z,1.80
2018-02-10T02:38:35.956Z,1.80
2018-02-10T02:41:02.306Z,1.90
2018-02-10T02:43:28.422Z,1.90
2018-02-10T02:45:54.520Z,1.80
2018-02-10T02:48:20.669Z,1.90
2018-02-10T02:50:47.668Z,1.90
2018-02-10T02:53:13.718Z,1.90
2018-02-10T02:55:39.817Z,2.00
2018-02-10T02:58:05.870Z,2.00
2018-02-10T03:00:31.959Z,2.00
2018-02-10T03:02:58.727Z,2.00
2018-02-10T03:05:24.790Z,2.00
2018-02-10T03:07:51.092Z,2.00
2018-02-10T03:10:17.183Z,2.00
2018-02-10T03:12:43.442Z,2.00
2018-02-10T03:15:09.971Z,1.90
2018-02-10T03:17:37.073Z,1.90
2018-02-10T03:20:03.295Z,2.00
2018-02-10T03:22:29.278Z,1.90
2018-02-10T03:24:55.386Z,1.90
2018-02-10T03:27:21.930Z,1.80
2018-02-10T03:29:48.518Z,1.80
2018-02-10T03:32:16.355Z,1.70
2018-02-10T03:34:42.444Z,1.70
2018-02-10T03:37:08.549Z,1.70
2018-02-10T03:39:34.592Z,1.80
2018-02-10T03:42:00.690Z,1.80
2018-02-10T03:44:27.456Z,1.80
2018-02-10T03:46:53.529Z,1.80
2018-02-10T03:49:19.714Z,1.80
2018-02-10T03:51:45.745Z,1.90
2018-02-10T03:54:13.604Z,1.90
2018-02-10T03:56:39.627Z,1.90
2018-02-10T03:59:05.645Z,1.90
2018-02-10T04:01:32.282Z,1.90
2018-02-10T04:03:58.346Z,1.90
2018-02-10T04:06:24.448Z,2.00
2018-02-10T04:08:50.564Z,1.90
2018-02-10T04:11:16.573Z,1.90
2018-02-10T04:13:42.706Z,1.90
2018-02-10T04:16:09.693Z,1.90
2018-02-10T04:18:35.766Z,2.10
2018-02-10T04:21:01.772Z,2.00
2018-02-10T04:23:27.856Z,1.90
2018-02-10T04:25:54.770Z,1.90
2018-02-10T04:28:20.786Z,2.00
2018-02-10T04:30:47.372Z,2.00
2018-02-10T04:33:13.450Z,1.90
2018-02-10T04:35:40.285Z,2.10
2018-02-10T04:38:06.958Z,2.00
2018-02-10T04:40:32.952Z,2.00
2018-02-10T04:42:58.979Z,1.90
2018-02-10T04:45:25.082Z,1.80
2018-02-10T04:47:51.060Z,1.80
2018-02-10T04:50:17.107Z,1.80
2018-02-10T04:52:43.158Z,1.80
2018-02-10T04:55:09.432Z,1.90
2018-02-10T04:57:35.596Z,1.80
2018-02-10T05:00:01.904Z,1.80
2018-02-10T05:02:27.896Z,1.80
2018-02-10T05:04:53.964Z,1.80
2018-02-10T05:07:20.088Z,1.70
2018-02-10T05:09:46.110Z,1.70
2018-02-10T05:12:12.115Z,1.60
2018-02-10T05:14:38.129Z,1.60
2018-02-10T05:17:05.183Z,1.60
2018-02-10T05:19:31.212Z,1.60
2018-02-10T05:21:57.233Z,1.60
2018-02-10T05:24:23.483Z,1.60
2018-02-10T05:26:50.459Z,1.60
2018-02-10T05:29:16.851Z,1.60
2018-02-10T05:31:43.114Z,1.60
2018-02-10T05:34:09.956Z,1.60
2018-02-10T05:36:35.986Z,1.60
2018-02-10T05:39:02.214Z,1.70
2018-02-10T05:41:28.539Z,1.70
2018-02-10T05:43:55.130Z,1.70
2018-02-10T05:46:23.099Z,1.70
2018-02-10T05:48:49.150Z,1.70
2018-02-10T05:51:16.075Z,1.70
2018-02-10T05:53:43.842Z,1.80
2018-02-10T05:56:10.484Z,1.80
2018-02-10T05:58:36.625Z,1.80
2018-02-10T06:01:03.263Z,1.80
2018-02-10T06:03:29.354Z,1.80
2018-02-10T06:05:56.168Z,1.80
2018-02-10T06:08:22.164Z,1.80
2018-02-10T06:10:48.971Z,1.80
2018-02-10T06:13:14.934Z,1.80
2018-02-10T06:15:40.942Z,1.90
2018-02-10T06:18:07.798Z,1.80
2018-02-10T06:20:34.933Z,1.80
2018-02-10T06:23:01.022Z,1.70
2018-02-10T06:25:27.027Z,1.70
2018-02-10T06:27:53.148Z,1.70
2018-02-10T06:30:19.196Z,1.80
2018-02-10T06:32:45.277Z,1.70
2018-02-10T06:35:11.451Z,1.70
2018-02-10T06:37:38.427Z,1.80
2018-02-10T06:40:04.558Z,1.70
2018-02-10T06:42:31.348Z,1.70
2018-02-10T06:44:57.509Z,1.70
2018-02-10T06:47:23.575Z,1.80
2018-02-10T06:49:50.970Z,1.70
2018-02-10T06:52:17.809Z,1.70
2018-02-10T06:54:44.150Z,1.70
2018-02-10T06:57:12.985Z,1.70
2018-02-10T06:59:39.834Z,1.70
2018-02-10T07:02:05.913Z,1.80
2018-02-10T07:04:32.148Z,1.90
2018-02-10T07:06:58.720Z,1.80
2018-02-10T07:09:25.159Z,1.80
2018-02-10T07:11:51.564Z,1.80
2018-02-10T07:14:17.574Z,1.80
2018-02-10T07:16:43.582Z,1.80
2018-02-10T07:19:10.022Z,1.80
2018-02-10T07:21:36.262Z,1.80
2018-02-10T07:24:02.526Z,1.80
2018-02-10T07:26:29.338Z,1.80
2018-02-10T07:28:55.719Z,1.90
2018-02-10T07:31:21.914Z,1.90
2018-02-10T07:33:48.066Z,1.80
2018-02-10T07:36:14.438Z,1.80
2018-02-10T07:38:40.549Z,1.70
2018-02-10T07:41:08.897Z,1.80
2018-02-10T07:43:34.981Z,1.80
2018-02-10T07:46:01.082Z,1.80
2018-02-10T07:48:27.157Z,1.90
2018-02-10T07:53:25.020Z,1.90
2018-02-10T07:55:53.215Z,2.00
2018-02-10T07:58:19.581Z,2.00
2018-02-10T08:00:45.741Z,1.90
2018-02-10T08:03:12.007Z,1.90
2018-02-10T08:05:38.890Z,1.90
2018-02-10T08:08:04.947Z,1.90
2018-02-10T08:10:31.646Z,2.00
2018-02-10T08:12:59.605Z,1.90
2018-02-10T08:15:25.704Z,1.90
2018-02-10T08:17:52.463Z,2.00
2018-02-10T08:20:19.806Z,2.00
2018-02-10T08:22:46.900Z,2.00
2018-02-10T08:25:14.029Z,2.00
2018-02-10T08:27:40.288Z,1.90
2018-02-10T08:30:07.402Z,2.10
2018-02-10T08:32:33.639Z,2.10
2018-02-10T08:34:59.965Z,2.10
2018-02-10T08:37:26.256Z,2.10
2018-02-10T08:39:52.982Z,2.10
2018-02-10T08:42:19.947Z,2.20
2018-02-10T08:44:46.579Z,2.20
2018-02-10T08:47:13.601Z,2.30
2018-02-10T08:49:39.664Z,2.10
2018-02-10T08:52:06.418Z,2.60
2018-02-10T08:54:32.549Z,2.50
2018-02-10T08:56:58.561Z,2.60
2018-02-10T08:59:27.066Z,2.50
2018-02-10T09:01:53.090Z,2.40
2018-02-10T09:04:22.629Z,2.40
2018-02-10T09:06:49.323Z,2.50
2018-02-10T09:09:15.320Z,2.40
2018-02-10T09:11:41.365Z,2.40
2018-02-10T09:14:08.407Z,2.40
2018-02-10T09:16:34.572Z,2.50
2018-02-10T09:19:01.847Z,2.50
2018-02-10T09:21:27.920Z,2.50
2018-02-10T09:23:54.004Z,2.50
2018-02-10T09:26:20.061Z,2.50
2018-02-10T09:28:46.492Z,2.60
2018-02-10T09:31:14.838Z,2.60
2018-02-10T09:33:41.652Z,2.70
2018-02-10T09:36:07.633Z,2.60
2018-02-10T09:38:33.718Z,2.80
2018-02-10T09:40:59.740Z,2.80
2018-02-10T09:43:25.735Z,2.80
2018-02-10T09:45:52.215Z,2.80
2018-02-10T09:48:20.264Z,2.80
2018-02-10T09:53:32.011Z,2.90
2018-02-10T09:55:58.098Z,2.80
2018-02-10T09:58:24.152Z,2.90
2018-02-10T10:00:50.409Z,2.90
2018-02-10T10:03:16.448Z,2.90
2018-02-10T10:05:43.306Z,2.80
2018-02-10T10:08:09.355Z,2.90
2018-02-10T10:10:35.484Z,2.80
2018-02-10T10:13:03.668Z,3.00
2018-02-10T10:15:29.811Z,2.90
2018-02-10T10:17:56.189Z,3.00
2018-02-10T10:20:22.519Z,3.10
2018-02-10T10:22:49.340Z,3.10
2018-02-10T10:25:16.452Z,3.10
2018-02-10T10:27:42.471Z,3.20
2018-02-10T10:30:08.581Z,3.20
2018-02-10T10:35:07.708Z,3.20
2018-02-10T10:37:36.462Z,3.30
2018-02-10T10:40:04.264Z,3.20
2018-02-10T10:42:30.505Z,3.20
2018-02-10T10:44:56.639Z,2.90
2018-02-10T10:47:23.486Z,3.10
2018-02-10T10:49:52.886Z,3.30
2018-02-10T10:52:23.005Z,3.30
2018-02-10T10:54:52.365Z,3.30
2018-02-10T10:57:20.856Z,3.20
2018-02-10T10:59:49.123Z,3.20
2018-02-10T11:02:25.428Z,3.20
2018-02-10T11:04:52.944Z,3.30
2018-02-10T11:07:22.971Z,3.30
2018-02-10T11:09:51.883Z,3.30
2018-02-10T11:12:18.647Z,3.20
2018-02-10T11:14:44.714Z,3.30
2018-02-10T11:17:16.145Z,3.30
2018-02-10T11:19:43.932Z,3.40
2018-02-10T11:22:13.962Z,3.40
2018-02-10T11:24:39.938Z,3.30
2018-02-10T11:27:06.900Z,3.30
2018-02-10T11:29:32.916Z,3.30
2018-02-10T11:31:59.051Z,3.40
2018-02-10T11:34:26.410Z,3.40
2018-02-10T11:36:52.494Z,3.50
2018-02-10T11:39:23.297Z,3.40
2018-02-10T11:41:50.275Z,3.50
2018-02-10T11:44:19.863Z,3.40
2018-02-10T11:46:46.380Z,3.40
2018-02-10T11:49:13.413Z,3.40
2018-02-10T11:51:39.621Z,3.40
2018-02-10T11:54:06.428Z,3.50
2018-02-10T11:56:34.759Z,3.40
2018-02-10T11:59:01.190Z,3.40
2018-02-10T12:01:28.434Z,3.30
2018-02-10T12:03:57.598Z,3.20
2018-02-10T12:06:29.804Z,3.50
2018-02-10T12:08:55.844Z,3.30
2018-02-10T12:11:22.084Z,3.50
2018-02-10T12:13:48.151Z,3.40
2018-02-10T12:19:00.691Z,3.40
2018-02-10T12:21:26.864Z,3.40
2018-02-10T12:23:54.249Z,3.40
2018-02-10T12:26:20.411Z,3.40
2018-02-10T12:28:53.088Z,3.40
2018-02-10T12:31:22.480Z,3.50
2018-02-10T12:33:52.200Z,3.40
2018-02-10T12:36:32.255Z,3.50
2018-02-10T12:39:00.656Z,3.50
2018-02-10T12:41:26.737Z,3.60
2018-02-10T12:43:53.725Z,3.60
2018-02-10T12:46:21.587Z,3.50
2018-02-10T12:49:02.387Z,3.50
2018-02-10T12:51:29.386Z,3.60
2018-02-10T12:56:37.987Z,3.50
2018-02-10T12:59:07.917Z,3.40
2018-02-10T13:04:07.265Z,3.50
2018-02-10T13:09:07.007Z,3.40
2018-02-10T13:11:33.418Z,3.40
2018-02-10T13:13:59.876Z,3.50
2018-02-10T13:24:17.090Z,3.40
2018-02-10T13:31:58.294Z,3.40
2018-02-10T13:39:33.350Z,3.60
2018-02-10T13:42:01.375Z,3.50
2018-02-10T13:44:30.084Z,3.60
2018-02-10T13:46:58.792Z,3.60
2018-02-10T13:49:34.032Z,3.70
2018-02-10T13:52:02.502Z,3.70
2018-02-10T13:54:31.588Z,3.80
2018-02-10T13:57:01.712Z,3.70
2018-02-10T13:59:33.722Z,3.70
2018-02-10T14:01:59.840Z,3.60
2018-02-10T14:04:28.536Z,3.70
2018-02-10T14:09:32.245Z,3.70
2018-02-10T14:14:38.215Z,3.60
2018-02-10T14:17:12.831Z,3.60
2018-02-10T14:22:12.884Z,3.70
2018-02-10T14:27:10.532Z,3.80
2018-02-10T14:29:37.249Z,3.70
2018-02-10T14:34:40.285Z,3.80
2018-02-10T14:42:13.284Z,3.90
2018-02-10T14:44:39.974Z,3.90
2018-02-10T14:47:07.023Z,3.80
2018-02-10T14:52:09.031Z,3.90
2018-02-10T14:54:43.316Z,4.00
2018-02-10T14:57:12.190Z,3.80
2018-02-10T14:59:40.823Z,3.90
2018-02-10T15:02:09.227Z,3.80
2018-02-10T15:04:36.177Z,3.90
2018-02-10T15:07:05.532Z,3.90
2018-02-10T15:09:34.153Z,3.80
2018-02-10T15:12:06.407Z,3.80
2018-02-10T15:14:32.675Z,3.80
2018-02-10T15:16:59.976Z,3.80
2018-02-10T15:19:28.189Z,3.80
2018-02-10T15:21:58.488Z,3.90
2018-02-10T15:27:03.792Z,3.80
2018-02-10T15:29:42.468Z,3.70
2018-02-10T15:32:22.183Z,3.80
2018-02-10T15:34:59.924Z,3.70
2018-02-10T15:37:27.152Z,3.70
2018-02-10T15:39:53.843Z,3.60
2018-02-10T15:42:20.649Z,3.60
2018-02-10T15:44:46.719Z,3.60
2018-02-10T15:47:16.600Z,3.70
2018-02-10T15:49:42.599Z,3.60
2018-02-10T15:54:41.641Z,3.60
2018-02-10T15:59:45.156Z,3.60
2018-02-10T16:02:13.458Z,3.60
2018-02-10T16:04:39.855Z,3.60
2018-02-10T16:07:09.020Z,3.60
2018-02-10T16:09:35.194Z,3.50
2018-02-10T16:12:04.499Z,3.70
2018-02-10T16:14:31.050Z,3.60
2018-02-10T16:16:58.148Z,3.60
2018-02-10T16:19:25.305Z,3.60
2018-02-10T16:21:51.885Z,3.50
2018-02-10T16:24:18.732Z,3.50
2018-02-10T16:29:24.064Z,3.50
2018-02-10T16:31:53.583Z,3.50
2018-02-10T16:34:21.934Z,3.50
2018-02-10T16:36:49.738Z,3.50
2018-02-10T16:39:16.558Z,3.50
2018-02-10T16:41:43.909Z,3.50
2018-02-10T16:46:49.944Z,3.50
2018-02-10T16:49:23.896Z,3.50
2018-02-10T16:54:25.670Z,3.60
2018-02-10T16:56:53.598Z,3.50
2018-02-10T16:59:26.585Z,3.50
2018-02-10T17:01:52.708Z,3.50
2018-02-10T17:04:21.265Z,3.50
2018-02-10T17:06:51.431Z,3.50
2018-02-10T17:09:19.919Z,3.50
2018-02-10T17:11:52.989Z,3.60
2018-02-10T17:14:20.879Z,3.60
2018-02-10T17:16:47.876Z,3.60
2018-02-10T17:19:24.099Z,3.60
2018-02-10T17:24:26.024Z,3.60
2018-02-10T17:26:53.289Z,3.60
2018-02-10T17:29:22.851Z,3.70
2018-02-10T17:31:51.789Z,3.60
2018-02-10T17:34:18.102Z,3.70
2018-02-10T17:36:44.900Z,3.70
2018-02-10T17:39:15.023Z,3.70
2018-02-10T17:41:44.064Z,3.50
2018-02-10T17:44:11.015Z,3.60
2018-02-10T17:46:37.047Z,3.60
2018-02-10T17:51:45.016Z,3.70
2018-02-10T17:54:14.519Z,3.70
2018-02-10T17:59:29.819Z,3.70
2018-02-10T18:01:57.320Z,3.60
2018-02-10T18:06:55.601Z,3.70
2018-02-10T18:09:27.421Z,3.70
2018-02-10T18:14:29.939Z,3.70
2018-02-10T18:19:35.730Z,3.70
2018-02-10T18:24:43.994Z,3.60
2018-02-10T18:29:43.560Z,3.60
2018-02-10T18:32:13.333Z,3.60
2018-02-10T18:34:42.025Z,3.60
2018-02-10T18:39:40.155Z,3.60
2018-02-10T18:44:39.209Z,3.60
2018-02-10T18:47:08.207Z,3.70
2018-02-10T18:49:36.247Z,3.50
2018-02-10T18:52:02.431Z,3.60
2018-02-10T18:54:29.900Z,3.50
2018-02-10T18:56:55.892Z,3.50
2018-02-10T18:59:22.012Z,3.50
2018-02-10T19:01:48.288Z,3.50
2018-02-10T19:04:16.012Z,3.50
2018-02-10T19:06:43.258Z,3.50
2018-02-10T19:09:11.438Z,3.40
2018-02-10T19:11:38.576Z,3.50
2018-02-10T19:16:37.085Z,3.50
2018-02-10T19:19:05.484Z,3.40
2018-02-10T19:21:32.171Z,3.40
2018-02-10T19:23:59.380Z,3.40
2018-02-10T19:26:25.546Z,3.40
2018-02-10T19:28:51.893Z,3.50
2018-02-10T19:31:18.624Z,3.40
2018-02-10T19:33:46.870Z,3.40
2018-02-10T19:36:12.834Z,3.40
2018-02-10T19:38:44.281Z,3.50
2018-02-10T19:41:11.041Z,3.60
2018-02-10T19:43:37.251Z,3.50
2018-02-10T19:46:04.884Z,3.50
2018-02-10T19:48:33.143Z,3.50
2018-02-10T19:50:59.311Z,3.50
2018-02-10T19:53:27.585Z,3.60
2018-02-10T19:55:53.841Z,3.60
2018-02-10T19:58:20.882Z,3.60
2018-02-10T20:00:47.884Z,3.50
2018-02-10T20:03:17.829Z,3.50
2018-02-10T20:05:47.152Z,3.40
2018-02-10T20:08:13.946Z,3.40
2018-02-10T20:10:40.622Z,3.40
2018-02-10T20:13:10.768Z,3.40
2018-02-10T20:15:37.968Z,3.40
2018-02-10T20:18:04.806Z,3.30
2018-02-10T20:20:35.137Z,3.40
2018-02-10T20:23:05.829Z,3.30
2018-02-10T20:25:31.921Z,3.30
2018-02-10T20:27:57.916Z,3.30
2018-02-10T20:30:24.994Z,3.30
2018-02-10T20:32:58.192Z,3.40
2018-02-10T20:35:26.534Z,3.40
2018-02-10T20:37:54.420Z,3.30
2018-02-10T20:40:23.203Z,3.30
2018-02-10T20:42:54.577Z,3.30
2018-02-10T20:45:21.932Z,3.30
2018-02-10T20:47:52.510Z,3.30
2018-02-10T20:50:22.535Z,3.30
2018-02-10T20:52:48.675Z,3.30
2018-02-10T20:55:15.775Z,3.30
2018-02-10T20:57:42.792Z,3.30
2018-02-10T21:00:14.177Z,3.30
2018-02-10T21:02:42.865Z,3.30
2018-02-10T21:07:46.316Z,3.30
2018-02-10T21:10:13.532Z,3.30
2018-02-10T21:15:14.358Z,3.20
2018-02-10T21:17:43.008Z,3.20
2018-02-10T21:20:09.926Z,3.20
2018-02-10T21:22:36.076Z,3.20
2018-02-10T21:25:03.275Z,3.40
2018-02-10T21:27:30.441Z,3.10
2018-02-10T21:29:56.553Z,3.40
2018-02-10T21:32:23.035Z,3.20
2018-02-10T21:34:50.903Z,3.00
2018-02-10T21:37:18.382Z,3.20
2018-02-10T21:39:47.765Z,3.10
2018-02-10T21:42:14.186Z,3.10
2018-02-10T21:44:44.776Z,3.10
2018-02-10T21:49:46.922Z,3.20
2018-02-10T21:52:17.377Z,3.20
2018-02-10T21:54:47.109Z,3.10
2018-02-10T21:57:13.241Z,3.10
2018-02-10T21:59:41.489Z,3.10
2018-02-10T22:07:11.703Z,3.10
2018-02-10T22:14:50.857Z,3.10
2018-02-10T22:49:30.501Z,2.80
2018-02-10T22:51:57.236Z,2.70
2018-02-10T22:54:23.254Z,2.70
2018-02-10T22:56:50.352Z,2.70
2018-02-10T22:59:16.399Z,2.60
2018-02-10T23:01:42.978Z,2.60
2018-02-10T23:04:09.097Z,2.60
2018-02-10T23:06:35.165Z,2.50
2018-02-10T23:09:01.150Z,2.50
2018-02-10T23:11:27.632Z,2.50
2018-02-10T23:13:54.619Z,2.50
2018-02-10T23:16:20.676Z,2.50
2018-02-10T23:18:47.006Z,2.50
2018-02-10T23:21:13.044Z,2.50
2018-02-10T23:23:39.080Z,2.50
2018-02-10T23:26:05.825Z,2.50
2018-02-10T23:28:32.490Z,2.60
2018-02-10T23:30:58.953Z,2.50
2018-02-10T23:33:25.105Z,2.50
2018-02-10T23:35:51.659Z,2.50
2018-02-10T23:38:17.677Z,2.50
2018-02-10T23:40:44.001Z,2.50
2018-02-10T23:43:10.051Z,2.50
2018-02-10T23:45:36.134Z,2.50
2018-02-10T23:48:02.197Z,2.50
2018-02-10T23:50:28.511Z,2.50
2018-02-10T23:52:55.426Z,2.50
2018-02-10T23:55:21.860Z,2.70
2018-02-10T23:57:47.864Z,2.50
